Time;durP1;ratioP1;P1;durP2;ratioP2;P2;SDS_P1;SDS_P2;PMS_P1;PMS_P2;Temp;Humidity;BMP_temperature;BMP_pressure;BME280_temperature;BME280_humidity;BME280_pressure;Samples;Min_cycle;Max_cycle;Signal;HPM_P1;HPM_P2
2021/10/17 00:00:25;;;;;;;19.45;8.88;;;;;;;7.53;72.20;100722.63;1824453;78;25701;-62
2021/10/17 00:02:56;;;;;;;24.23;8.78;;;;;;;7.53;72.21;100719.95;1824404;78;26050;-60
2021/10/17 00:05:27;;;;;;;16.73;9.60;;;;;;;7.53;72.27;100719.39;1824555;78;25454;-60
2021/10/17 00:07:56;;;;;;;18.27;8.65;;;;;;;7.52;72.16;100720.47;1816713;78;25556;-60
2021/10/17 00:10:27;;;;;;;16.77;8.23;;;;;;;7.50;72.15;100721.28;1815129;79;25724;-60
2021/10/17 00:12:57;;;;;;;26.07;9.55;;;;;;;7.50;72.15;100720.49;1813353;79;25438;-60
2021/10/17 00:15:26;;;;;;;21.62;9.20;;;;;;;7.49;72.19;100721.02;1815308;79;27470;-60
2021/10/17 00:17:54;;;;;;;20.00;7.97;;;;;;;7.51;72.25;100722.08;1815301;79;25942;-60
2021/10/17 00:20:24;;;;;;;19.10;8.93;;;;;;;7.50;72.24;100719.14;1815166;79;25575;-60
2021/10/17 00:22:51;;;;;;;22.77;8.48;;;;;;;7.50;72.22;100722.63;1815246;79;25453;-60
2021/10/17 00:25:20;;;;;;;21.82;8.65;;;;;;;7.50;72.15;100723.98;1815200;79;25717;-60
2021/10/17 00:27:48;;;;;;;24.27;8.65;;;;;;;7.51;72.22;100724.77;1815152;78;27465;-60
2021/10/17 00:30:15;;;;;;;21.57;8.98;;;;;;;7.51;72.25;100725.60;1815058;79;25952;-60
2021/10/17 00:32:43;;;;;;;18.95;8.43;;;;;;;7.51;72.27;100720.73;1815161;79;25674;-60
2021/10/17 00:35:12;;;;;;;21.23;8.73;;;;;;;7.49;72.25;100716.97;1815099;79;25606;-60
2021/10/17 00:37:40;;;;;;;18.87;8.43;;;;;;;7.47;72.15;100716.45;1815303;78;25468;-60
2021/10/17 00:40:12;;;;;;;23.35;7.65;;;;;;;7.47;72.25;100714.59;1815115;79;27290;-59
2021/10/17 00:42:43;;;;;;;16.80;8.55;;;;;;;7.47;72.23;100715.94;1814901;79;25670;-60
2021/10/17 00:45:16;;;;;;;23.30;8.50;;;;;;;7.45;72.19;100713.23;1815165;79;25598;-59
2021/10/17 00:47:44;;;;;;;21.65;7.72;;;;;;;7.45;72.24;100711.89;1812637;79;26211;-59
2021/10/17 00:50:12;;;;;;;20.97;8.75;;;;;;;7.44;72.34;100717.00;1815150;79;25679;-61
2021/10/17 00:52:42;;;;;;;19.48;8.05;;;;;;;7.43;72.32;100718.10;1815136;79;27462;-59
2021/10/17 00:55:14;;;;;;;26.00;8.58;;;;;;;7.41;72.38;100714.34;1815080;78;25988;-60
2021/10/17 00:57:42;;;;;;;22.40;8.63;;;;;;;7.41;72.30;100707.61;1815139;79;25626;-59
2021/10/17 01:00:13;;;;;;;18.05;8.53;;;;;;;7.39;72.30;100707.61;1815105;79;25650;-59
2021/10/17 01:02:41;;;;;;;20.43;8.20;;;;;;;7.37;72.42;100707.09;1815183;79;25670;-60
2021/10/17 01:05:14;;;;;;;17.10;8.03;;;;;;;7.35;72.43;100710.60;1815118;79;27452;-59
2021/10/17 01:07:40;;;;;;;17.90;9.10;;;;;;;7.33;72.52;100711.42;1789087;78;25479;-60
2021/10/17 01:10:09;;;;;;;17.67;8.53;;;;;;;7.33;72.56;100708.19;1821131;78;25610;-60
2021/10/17 01:12:35;;;;;;;22.52;8.53;;;;;;;7.31;72.69;100709.56;1821145;78;25702;-60
2021/10/17 01:15:04;;;;;;;21.23;9.08;;;;;;;7.28;72.72;100704.97;1821373;78;25499;-61
2021/10/17 01:17:35;;;;;;;16.12;7.45;;;;;;;7.26;72.77;100703.10;1821531;78;27522;-60
2021/10/17 01:20:08;;;;;;;22.02;9.68;;;;;;;7.29;72.83;100695.03;1821251;78;25466;-60
2021/10/17 01:22:38;;;;;;;23.47;9.20;;;;;;;7.29;72.84;100694.48;1821343;78;25554;-60
2021/10/17 01:25:06;;;;;;;19.07;8.05;;;;;;;7.29;72.82;100695.83;1821149;78;25665;-60
2021/10/17 01:27:33;;;;;;;16.07;8.23;;;;;;;7.30;72.91;100691.23;1821326;78;25507;-60
2021/10/17 01:30:01;;;;;;;25.02;9.43;;;;;;;7.30;72.89;100692.59;1821318;78;28133;-61
2021/10/17 01:32:35;;;;;;;25.50;9.13;;;;;;;7.32;72.95;100687.76;1821236;78;25773;-60
2021/10/17 01:35:04;;;;;;;19.02;8.05;;;;;;;7.31;72.95;100686.14;1821341;78;25584;-60
2021/10/17 01:37:31;;;;;;;18.85;8.03;;;;;;;7.30;72.92;100689.90;1821423;78;25681;-60
2021/10/17 01:40:00;;;;;;;22.22;9.08;;;;;;;7.31;72.98;100690.72;1821325;78;25685;-60
2021/10/17 01:42:27;;;;;;;22.70;9.10;;;;;;;7.31;73.07;100693.41;1821326;78;27506;-60
2021/10/17 01:44:54;;;;;;;19.40;8.63;;;;;;;7.31;73.08;100684.00;1821231;78;25788;-60
2021/10/17 01:47:21;;;;;;;21.82;8.63;;;;;;;7.30;73.14;100677.78;1821239;78;25659;-61
2021/10/17 01:49:49;;;;;;;23.12;8.63;;;;;;;7.31;73.25;100678.61;1821272;78;25629;-60
2021/10/17 01:52:16;;;;;;;20.17;8.70;;;;;;;7.31;73.17;100680.75;1821345;78;25542;-60
2021/10/17 01:54:43;;;;;;;24.80;8.25;;;;;;;7.30;73.25;100673.75;1821273;78;27490;-60
2021/10/17 01:57:10;;;;;;;21.05;8.88;;;;;;;7.28;73.34;100679.95;1821203;78;25590;-60
2021/10/17 01:59:37;;;;;;;22.10;9.95;;;;;;;7.26;73.36;100672.16;1821398;78;25476;-61
2021/10/17 02:02:04;;;;;;;20.30;8.58;;;;;;;7.25;73.39;100673.78;1821210;78;25502;-60
2021/10/17 02:04:31;;;;;;;22.67;9.23;;;;;;;7.26;73.49;100680.78;1821306;78;25490;-61
2021/10/17 02:06:58;;;;;;;21.33;9.75;;;;;;;7.25;73.53;100675.95;1820033;78;27502;-60
2021/10/17 02:09:27;;;;;;;19.12;9.45;;;;;;;7.25;73.54;100669.74;1815098;79;25747;-60
2021/10/17 02:11:54;;;;;;;22.85;9.93;;;;;;;7.24;73.58;100674.33;1815364;79;25446;-60
2021/10/17 02:14:22;;;;;;;21.27;9.88;;;;;;;7.25;73.61;100667.05;1815142;79;25614;-60
2021/10/17 02:16:49;;;;;;;19.55;8.93;;;;;;;7.26;73.63;100674.84;1815274;78;25680;-61
2021/10/17 02:19:16;;;;;;;21.27;9.78;;;;;;;7.26;73.65;100676.20;1815239;79;27444;-61
2021/10/17 02:21:42;;;;;;;24.98;10.75;;;;;;;7.25;73.68;100673.78;1815157;79;25577;-61
2021/10/17 02:24:11;;;;;;;23.60;9.18;;;;;;;7.24;73.70;100675.67;1815239;79;25688;-61
2021/10/17 02:26:38;;;;;;;21.07;9.45;;;;;;;7.24;73.80;100678.91;1815200;78;25668;-61
2021/10/17 02:29:06;;;;;;;19.77;9.15;;;;;;;7.24;73.92;100676.22;1815221;79;25623;-60
2021/10/17 02:31:33;;;;;;;28.07;11.57;;;;;;;7.23;73.88;100669.22;1815242;79;27446;-60
2021/10/17 02:33:59;;;;;;;20.62;10.03;;;;;;;7.24;73.93;100669.50;1815161;79;25511;-60
2021/10/17 02:36:26;;;;;;;23.27;9.18;;;;;;;7.23;73.94;100672.70;1815245;79;25640;-60
2021/10/17 02:38:53;;;;;;;21.77;9.33;;;;;;;7.23;73.93;100667.33;1815111;79;25676;-62
2021/10/17 02:41:20;;;;;;;21.93;9.05;;;;;;;7.24;73.99;100670.84;1815222;79;25662;-60
2021/10/17 02:43:46;;;;;;;24.92;10.93;;;;;;;7.23;74.02;100666.53;1815205;79;27554;-60
2021/10/17 02:46:13;;;;;;;23.05;9.75;;;;;;;7.24;74.10;100661.42;1815117;79;25804;-62
2021/10/17 02:48:40;;;;;;;21.82;9.63;;;;;;;7.23;74.14;100667.33;1815146;79;25669;-62
2021/10/17 02:51:07;;;;;;;20.95;10.18;;;;;;;7.22;74.14;100671.63;1815178;79;25679;-61
2021/10/17 02:53:34;;;;;;;22.42;11.05;;;;;;;7.21;74.13;100673.53;1815233;79;25536;-61
2021/10/17 02:56:01;;;;;;;23.62;10.45;;;;;;;7.20;74.25;100673.28;1815304;79;27638;-61
2021/10/17 02:58:28;;;;;;;22.58;10.45;;;;;;;7.18;74.34;100675.42;1815130;79;25838;-61
2021/10/17 03:00:55;;;;;;;25.45;10.53;;;;;;;7.18;74.33;100678.11;1815220;79;25509;-62
2021/10/17 03:03:22;;;;;;;26.97;11.10;;;;;;;7.17;74.39;100670.31;1815158;79;25494;-61
2021/10/17 03:05:49;;;;;;;26.05;10.43;;;;;;;7.18;74.53;100671.39;1815166;79;25514;-61
2021/10/17 03:08:16;;;;;;;23.87;11.48;;;;;;;7.18;74.54;100666.55;1815098;78;27477;-61
2021/10/17 03:10:43;;;;;;;22.75;10.58;;;;;;;7.17;74.62;100665.77;1815166;79;25641;-60
2021/10/17 03:13:09;;;;;;;24.80;11.15;;;;;;;7.17;74.55;100662.25;1815182;79;25525;-61
2021/10/17 03:15:36;;;;;;;25.50;11.18;;;;;;;7.18;74.66;100671.94;1815240;79;25625;-62
2021/10/17 03:18:03;;;;;;;22.48;10.40;;;;;;;7.19;74.77;100668.97;1815228;79;25540;-62
2021/10/17 03:20:31;;;;;;;24.90;11.20;;;;;;;7.19;74.70;100676.25;1815202;79;27494;-62
2021/10/17 03:22:58;;;;;;;27.55;10.63;;;;;;;7.18;74.85;100672.73;1815055;79;25925;-61
2021/10/17 03:25:25;;;;;;;23.07;10.85;;;;;;;7.17;74.92;100675.17;1815194;79;25608;-62
2021/10/17 03:27:52;;;;;;;25.68;10.80;;;;;;;7.16;74.91;100670.07;1815142;78;26058;-62
2021/10/17 03:30:19;;;;;;;20.40;10.58;;;;;;;7.14;74.98;100666.31;1815343;79;25453;-62
2021/10/17 03:32:46;;;;;;;23.35;10.85;;;;;;;7.14;74.92;100665.52;1815283;79;27551;-62
2021/10/17 03:35:13;;;;;;;27.25;12.13;;;;;;;7.15;74.96;100664.41;1815183;79;25663;-62
2021/10/17 03:37:39;;;;;;;22.87;11.53;;;;;;;7.11;75.01;100659.58;1815162;79;25651;-61
2021/10/17 03:40:08;;;;;;;24.02;10.82;;;;;;;7.10;75.13;100665.27;1815077;79;25614;-62
2021/10/17 03:42:35;;;;;;;23.18;11.08;;;;;;;7.08;75.11;100661.50;1815211;79;25619;-62
2021/10/17 03:45:02;;;;;;;24.37;12.10;;;;;;;7.05;75.19;100659.36;1815265;79;27510;-61
2021/10/17 03:47:29;;;;;;;28.83;11.93;;;;;;;7.04;75.41;100658.28;1815042;79;27297;-61
2021/10/17 03:49:55;;;;;;;22.55;11.35;;;;;;;7.01;75.52;100661.52;1815134;79;25497;-61
2021/10/17 03:52:22;;;;;;;31.75;14.07;;;;;;;6.98;75.53;100662.06;1815125;79;25526;-62
2021/10/17 03:54:49;;;;;;;23.98;12.45;;;;;;;6.95;75.68;100660.75;1815159;79;25512;-62
2021/10/17 03:57:16;;;;;;;22.62;10.38;;;;;;;6.94;75.90;100665.84;1815177;79;27503;-62
2021/10/17 03:59:42;;;;;;;27.13;11.70;;;;;;;6.93;75.97;100669.64;1815086;79;25628;-61
2021/10/17 04:02:09;;;;;;;27.52;11.63;;;;;;;6.91;75.99;100665.88;1815148;79;25503;-61
2021/10/17 04:04:36;;;;;;;24.47;12.35;;;;;;;6.91;76.01;100667.22;1815099;79;27609;-60
2021/10/17 04:07:06;;;;;;;24.60;11.80;;;;;;;6.91;75.96;100670.43;1815284;79;25675;-61
2021/10/17 04:09:34;;;;;;;27.82;12.68;;;;;;;6.93;76.12;100666.95;1815203;79;28125;-61
2021/10/17 04:12:00;;;;;;;25.43;12.05;;;;;;;6.93;76.11;100665.60;1815066;79;25627;-61
2021/10/17 04:14:27;;;;;;;25.45;11.35;;;;;;;6.94;76.06;100667.74;1815118;79;25468;-60
2021/10/17 04:16:54;;;;;;;27.37;11.75;;;;;;;6.93;76.08;100662.91;1815186;79;26428;-60
2021/10/17 04:19:21;;;;;;;27.25;11.22;;;;;;;6.94;76.10;100661.02;1815124;79;25619;-60
2021/10/17 04:21:47;;;;;;;23.87;11.88;;;;;;;6.92;76.07;100667.47;1815154;79;28139;-61
2021/10/17 04:24:14;;;;;;;27.13;12.50;;;;;;;6.92;76.19;100666.12;1815046;79;25589;-60
2021/10/17 04:26:41;;;;;;;20.92;10.55;;;;;;;6.92;76.21;100666.67;1815234;79;25636;-62
2021/10/17 04:29:08;;;;;;;28.02;11.60;;;;;;;6.91;76.28;100662.36;1815057;79;25611;-61
2021/10/17 04:31:35;;;;;;;27.62;11.45;;;;;;;6.92;76.35;100661.30;1815172;79;25794;-61
2021/10/17 04:34:01;;;;;;;24.02;10.90;;;;;;;6.94;76.45;100661.02;1815140;78;27495;-61
2021/10/17 04:36:29;;;;;;;26.45;10.93;;;;;;;6.92;76.44;100661.30;1815031;79;27296;-61
2021/10/17 04:38:56;;;;;;;24.65;11.80;;;;;;;6.92;76.48;100664.78;1815104;79;25624;-61
2021/10/17 04:41:23;;;;;;;28.40;11.30;;;;;;;6.93;76.57;100666.95;1815201;78;25506;-61
2021/10/17 04:43:50;;;;;;;26.82;11.60;;;;;;;6.93;76.57;100664.27;1815170;79;25479;-61
2021/10/17 04:46:17;;;;;;;24.85;10.68;;;;;;;6.95;76.62;100661.27;1815108;79;27506;-60
2021/10/17 04:48:44;;;;;;;28.42;11.85;;;;;;;6.96;76.55;100661.55;1815093;79;25501;-61
2021/10/17 04:51:11;;;;;;;22.55;10.25;;;;;;;6.97;76.67;100663.16;1815280;79;25608;-61
2021/10/17 04:53:37;;;;;;;28.60;11.83;;;;;;;6.95;76.55;100660.75;1815267;79;25670;-61
2021/10/17 04:56:04;;;;;;;28.07;11.57;;;;;;;6.96;76.71;100660.20;1815363;79;25437;-61
2021/10/17 04:58:31;;;;;;;23.27;11.75;;;;;;;6.95;76.66;100659.41;1815300;79;27483;-61
2021/10/17 05:00:58;;;;;;;23.35;11.65;;;;;;;6.95;76.73;100660.75;1815208;79;25844;-61
2021/10/17 05:03:25;;;;;;;24.02;11.45;;;;;;;6.95;76.79;100666.12;1815306;79;25587;-60
2021/10/17 05:05:52;;;;;;;22.75;11.15;;;;;;;6.96;76.81;100657.52;1815265;78;26138;-61
2021/10/17 05:08:19;;;;;;;23.87;11.10;;;;;;;6.95;76.83;100655.38;1815214;78;25677;-60
2021/10/17 05:10:47;;;;;;;29.15;12.05;;;;;;;6.95;76.80;100654.55;1815234;79;27503;-60
2021/10/17 05:13:14;;;;;;;26.50;12.13;;;;;;;6.97;76.85;100663.16;1815167;79;25877;-60
2021/10/17 05:15:41;;;;;;;25.50;11.00;;;;;;;6.98;76.88;100658.03;1815269;78;25628;-61
2021/10/17 05:18:08;;;;;;;22.75;11.57;;;;;;;6.99;76.88;100668.52;1815251;79;25635;-61
2021/10/17 05:20:35;;;;;;;25.37;11.30;;;;;;;7.00;76.93;100667.45;1815333;79;25481;-61
2021/10/17 05:23:07;;;;;;;20.02;11.05;;;;;;;7.02;76.89;100670.66;1815302;78;27496;-60
2021/10/17 05:25:36;;;;;;;21.40;11.33;;;;;;;7.04;76.84;100667.16;1813524;79;26060;-59
2021/10/17 05:28:04;;;;;;;23.42;11.25;;;;;;;7.08;76.81;100667.41;1815381;79;25463;-60
2021/10/17 05:30:32;;;;;;;18.95;10.80;;;;;;;7.09;76.77;100671.71;1815240;79;25662;-60
2021/10/17 05:33:00;;;;;;;24.43;11.33;;;;;;;7.09;76.78;100670.37;1815310;78;25564;-60
2021/10/17 05:35:27;;;;;;;23.35;11.00;;;;;;;7.09;76.79;100675.20;1815267;79;27588;-60
2021/10/17 05:37:54;;;;;;;21.62;10.88;;;;;;;7.11;76.79;100676.27;1815170;79;25453;-60
2021/10/17 05:40:21;;;;;;;26.17;11.80;;;;;;;7.11;76.87;100683.00;1815208;79;25663;-60
2021/10/17 05:42:48;;;;;;;23.32;11.03;;;;;;;7.10;76.97;100675.48;1815236;79;26087;-60
2021/10/17 05:45:16;;;;;;;23.57;11.75;;;;;;;7.11;76.79;100678.96;1815289;79;25783;-60
2021/10/17 05:47:42;;;;;;;23.85;10.85;;;;;;;7.14;76.84;100680.31;1815260;79;28122;-60
2021/10/17 05:50:10;;;;;;;23.65;11.08;;;;;;;7.16;76.83;100681.63;1815143;79;25846;-62
2021/10/17 05:52:37;;;;;;;26.90;10.80;;;;;;;7.17;76.78;100685.11;1815272;78;25513;-61
2021/10/17 05:55:04;;;;;;;20.90;10.23;;;;;;;7.17;76.77;100685.94;1815221;79;26140;-61
2021/10/17 05:57:36;;;;;;;26.30;10.85;;;;;;;7.18;76.74;100688.08;1815292;79;25500;-61
2021/10/17 06:00:03;;;;;;;20.55;11.28;;;;;;;7.19;76.79;100692.39;1815151;79;27551;-62
2021/10/17 06:02:30;;;;;;;22.00;10.78;;;;;;;7.20;76.69;100694.81;1815183;79;25454;-62
2021/10/17 06:04:58;;;;;;;25.20;11.40;;;;;;;7.22;76.70;100692.64;1815241;79;25536;-62
2021/10/17 06:07:25;;;;;;;30.12;13.53;;;;;;;7.25;76.71;100692.09;1815180;79;26196;-62
2021/10/17 06:09:52;;;;;;;24.75;10.10;;;;;;;7.25;76.71;100692.61;1815121;78;25528;-62
2021/10/17 06:12:19;;;;;;;52.23;47.75;;;;;;;7.29;76.69;100697.17;1815219;79;28153;-61
2021/10/17 06:14:46;;;;;;;54.10;49.58;;;;;;;7.31;76.62;100699.59;1815137;79;25813;-61
2021/10/17 06:17:13;;;;;;;19.75;10.40;;;;;;;7.34;76.57;100700.39;1815251;78;25674;-61
2021/10/17 06:19:40;;;;;;;20.48;9.88;;;;;;;7.37;76.53;100702.53;1815195;78;26163;-61
2021/10/17 06:22:06;;;;;;;24.85;9.35;;;;;;;7.40;76.53;100701.95;1815260;79;25634;-61
2021/10/17 06:24:34;;;;;;;23.32;8.60;;;;;;;7.40;76.40;100696.57;1815233;79;27559;-61
2021/10/17 06:27:01;;;;;;;85.72;79.25;;;;;;;7.42;76.44;100698.47;1815120;79;25942;-61
2021/10/17 06:29:28;;;;;;;46.50;42.78;;;;;;;7.44;76.33;100707.06;1815194;79;25583;-61
2021/10/17 06:31:55;;;;;;;76.25;68.20;;;;;;;7.45;76.28;100700.58;1815187;79;26124;-61
2021/10/17 06:34:22;;;;;;;20.20;10.88;;;;;;;7.47;76.21;100702.48;1815242;79;25423;-61
2021/10/17 06:36:49;;;;;;;23.95;17.32;;;;;;;7.50;76.24;100703.79;1815309;79;27621;-61
2021/10/17 06:39:16;;;;;;;28.57;25.50;;;;;;;7.52;76.15;100696.78;1815114;79;25813;-61
2021/10/17 06:41:42;;;;;;;19.82;13.35;;;;;;;7.53;76.10;100697.06;1815229;79;25633;-62
2021/10/17 06:44:09;;;;;;;18.50;9.80;;;;;;;7.54;76.02;100699.45;1815191;79;25714;-62
2021/10/17 06:46:36;;;;;;;16.67;7.35;;;;;;;7.55;76.09;100694.34;1815234;79;25643;-61
2021/10/17 06:49:03;;;;;;;18.07;8.95;;;;;;;7.59;76.12;100706.70;1815196;79;27585;-61
2021/10/17 06:51:29;;;;;;;59.58;54.53;;;;;;;7.62;76.11;100705.59;1815117;79;25599;-61
2021/10/17 06:53:56;;;;;;;96.15;89.17;;;;;;;7.65;76.00;100700.21;1815211;78;25494;-63
2021/10/17 06:56:24;;;;;;;77.45;71.82;;;;;;;7.67;75.88;100701.52;1815189;79;26160;-63
2021/10/17 06:58:51;;;;;;;108.50;101.33;;;;;;;7.71;75.78;100700.97;1815328;79;25631;-63
2021/10/17 07:01:18;;;;;;;84.47;63.20;;;;;;;7.72;75.83;100703.94;1815200;79;28099;-62
2021/10/17 07:03:46;;;;;;;193.52;178.85;;;;;;;7.75;75.52;100707.42;1815123;79;25824;-63
2021/10/17 07:07:39;;;;;;;16.48;7.55;;;;;;;7.88;75.60;100714.05;1904699;74;34708;-62
2021/10/17 07:10:08;;;;;;;19.00;7.72;;;;;;;7.83;75.59;100714.88;1837805;77;25554;-61
2021/10/17 07:12:34;;;;;;;20.50;7.87;;;;;;;7.86;75.39;100711.09;1825492;78;28040;-62
2021/10/17 07:15:02;;;;;;;16.05;8.70;;;;;;;7.91;75.23;100716.20;1825347;78;25477;-62
2021/10/17 07:17:28;;;;;;;22.65;8.85;;;;;;;7.95;75.42;100709.15;1824925;78;25289;-62
2021/10/17 07:19:55;;;;;;;17.60;8.08;;;;;;;8.00;75.27;100714.50;1824332;78;26319;-61
2021/10/17 07:22:22;;;;;;;28.70;15.30;;;;;;;8.05;75.05;100722.54;1824777;78;25922;-61
2021/10/17 07:24:50;;;;;;;135.97;125.20;;;;;;;8.04;74.96;100713.66;1825575;78;26110;-61
2021/10/17 07:27:17;;;;;;;154.85;144.20;;;;;;;8.11;75.03;100717.38;1825337;78;25189;-62
2021/10/17 07:29:45;;;;;;;123.45;113.40;;;;;;;8.17;74.79;100723.53;1825565;78;25625;-61
2021/10/17 07:32:12;;;;;;;15.20;7.75;;;;;;;8.21;74.82;100725.94;1825399;78;25597;-62
2021/10/17 07:34:38;;;;;;;151.85;141.15;;;;;;;8.28;74.78;100724.27;1825472;78;25504;-61
2021/10/17 07:37:05;;;;;;;75.78;68.35;;;;;;;8.33;74.77;100725.56;1825421;78;27546;-62
2021/10/17 07:39:32;;;;;;;22.35;8.90;;;;;;;8.36;74.56;100728.50;1825311;77;25938;-61
2021/10/17 07:41:59;;;;;;;20.65;7.83;;;;;;;8.40;74.52;100726.83;1825430;78;25484;-62
2021/10/17 07:44:25;;;;;;;16.90;8.50;;;;;;;;;;1825396;78;25614;-62
2021/10/17 07:46:52;;;;;;;220.42;204.87;;;;;;;8.46;74.08;100731.66;1825393;78;25489;-61
2021/10/17 07:49:19;;;;;;;136.55;125.87;;;;;;;8.48;73.91;100733.55;1825430;78;28113;-61
2021/10/17 07:51:45;;;;;;;185.45;171.18;;;;;;;8.50;73.97;100730.57;1825335;78;26036;-61
2021/10/17 07:54:12;;;;;;;67.67;62.10;;;;;;;8.51;73.72;100724.07;1825423;78;25657;-61
2021/10/17 07:56:39;;;;;;;94.32;87.00;;;;;;;8.54;73.61;100727.00;1825339;78;25618;-61
2021/10/17 07:59:37;;;;;;;252.30;234.07;;;;;;;8.65;73.58;100733.12;1888398;74;27648;-62
2021/10/17 08:02:06;;;;;;;126.72;117.75;;;;;;;8.61;73.66;100728.02;1859215;77;25417;-62
2021/10/17 08:04:36;;;;;;;38.60;35.17;;;;;;;8.64;73.17;100730.70;1859170;77;28052;-63
2021/10/17 08:07:03;;;;;;;40.85;36.50;;;;;;;8.63;73.35;100731.78;1859069;76;25429;-61
2021/10/17 08:09:32;;;;;;;14.63;7.28;;;;;;;8.65;73.20;100733.12;1846187;77;25549;-63
2021/10/17 08:12:00;;;;;;;40.97;37.30;;;;;;;8.67;73.23;100730.14;1825694;78;25472;-62
2021/10/17 08:14:27;;;;;;;71.42;65.60;;;;;;;8.68;72.97;100737.12;1825456;78;25487;-62
2021/10/17 08:16:55;;;;;;;18.27;8.33;;;;;;;8.68;73.07;100735.78;1825478;78;27580;-62
2021/10/17 08:19:22;;;;;;;21.80;8.53;;;;;;;8.70;72.74;100741.16;1825283;78;25414;-62
2021/10/17 08:21:50;;;;;;;17.67;7.78;;;;;;;8.69;72.87;100738.19;1825452;78;25486;-61
2021/10/17 08:24:18;;;;;;;16.42;7.62;;;;;;;8.71;72.89;100736.00;1825368;78;27312;-61
2021/10/17 08:26:46;;;;;;;15.88;7.75;;;;;;;8.74;72.66;100728.70;1825451;78;25386;-60
2021/10/17 08:29:14;;;;;;;17.15;7.60;;;;;;;8.75;72.77;100729.49;1825448;78;28528;-61
2021/10/17 08:31:42;;;;;;;17.65;8.25;;;;;;;8.78;72.77;100727.05;1825312;78;25381;-61
2021/10/17 08:34:09;;;;;;;12.78;6.95;;;;;;;8.82;72.69;100729.16;1825417;78;25357;-60
2021/10/17 08:36:37;;;;;;;14.30;8.23;;;;;;;8.83;72.50;100726.73;1825364;78;25341;-61
2021/10/17 08:39:05;;;;;;;15.28;7.67;;;;;;;8.85;72.51;100732.64;1825403;77;25586;-62
2021/10/17 08:41:33;;;;;;;16.35;8.65;;;;;;;8.88;72.77;100728.81;1825424;78;27456;-61
2021/10/17 08:44:03;;;;;;;15.95;8.20;;;;;;;8.94;72.83;100728.23;1825330;78;25816;-62
2021/10/17 08:46:33;;;;;;;17.90;8.58;;;;;;;8.99;72.69;100728.17;1825549;78;25541;-62
2021/10/17 08:49:01;;;;;;;18.23;8.30;;;;;;;9.02;72.45;100733.53;1825388;78;25380;-62
2021/10/17 08:51:29;;;;;;;13.60;7.97;;;;;;;9.02;72.08;100730.28;1825432;78;25571;-61
2021/10/17 08:53:59;;;;;;;14.65;7.92;;;;;;;9.03;72.08;100736.50;1825410;78;28029;-62
2021/10/17 08:56:27;;;;;;;19.17;8.43;;;;;;;9.04;72.13;100734.86;1825450;78;25734;-62
2021/10/17 08:58:54;;;;;;;21.30;7.92;;;;;;;9.05;71.80;100737.80;1825266;78;25337;-62
2021/10/17 09:01:22;;;;;;;15.58;8.30;;;;;;;9.06;71.74;100738.59;1825339;78;25322;-71
2021/10/17 09:05:45;;;;;;;225.83;209.57;;;;;;;9.23;72.40;100750.27;1924227;74;28225;-60
2021/10/17 09:08:17;;;;;;;18.32;8.55;;;;;;;9.21;72.32;100741.14;1894166;75;25400;-60
2021/10/17 09:10:50;;;;;;;15.90;7.28;;;;;;;9.27;72.32;100739.17;1859484;75;27330;-60
2021/10/17 09:13:18;;;;;;;17.57;7.78;;;;;;;9.28;71.66;100740.23;1821348;78;25616;-61
2021/10/17 09:15:46;;;;;;;15.72;7.58;;;;;;;9.29;71.63;100737.78;1854900;77;25505;-61
2021/10/17 09:18:23;;;;;;;17.87;9.05;;;;;;;9.32;71.64;100739.91;1821630;78;25427;-59
2021/10/17 09:21:06;;;;;;;15.68;7.45;;;;;;;9.35;71.43;100735.84;1855012;77;25565;-60
2021/10/17 09:23:41;;;;;;;17.02;8.08;;;;;;;9.38;71.53;100739.31;1821430;78;27432;-61
2021/10/17 09:26:17;;;;;;;15.05;7.45;;;;;;;9.40;71.23;100738.47;1854907;77;25363;-60
2021/10/17 09:28:46;;;;;;;238.75;220.82;;;;;;;9.41;71.22;100750.06;1821423;78;25396;-60
2021/10/17 09:31:18;;;;;;;114.75;105.27;;;;;;;7.94;71.13;100479.95;1855015;77;25400;-61
2021/10/17 09:33:58;;;;;;;157.60;145.80;;;;;;;9.44;71.03;100749.49;1821405;78;25527;-60
2021/10/17 09:36:33;;;;;;;134.40;124.22;;;;;;;9.47;70.87;100752.41;1855041;77;27488;-60
2021/10/17 09:39:11;;;;;;;18.57;14.93;;;;;;;9.47;70.97;100754.32;1820970;78;25582;-61
2021/10/17 09:41:52;;;;;;;15.20;7.92;;;;;;;9.47;71.09;100748.92;1854763;77;25558;-61
2021/10/17 09:44:21;;;;;;;21.35;8.28;;;;;;;9.45;70.89;100753.26;1818821;78;25853;-60
2021/10/17 09:46:58;;;;;;;15.13;7.25;;;;;;;9.46;71.21;100748.65;1821500;78;25420;-60
2021/10/17 09:49:26;;;;;;;15.08;7.75;;;;;;;9.47;70.97;100744.31;1821348;78;27363;-61
2021/10/17 09:52:18;;;;;;;17.80;8.65;;;;;;;9.46;71.05;100752.14;1821247;78;25407;-61
2021/10/17 09:54:48;;;;;;;16.65;8.05;;;;;;;9.49;71.18;100750.78;1821333;78;25521;-60
2021/10/17 09:57:17;;;;;;;20.17;9.50;;;;;;;9.52;70.96;100744.25;1821131;78;25829;-60
2021/10/17 09:59:45;;;;;;;17.57;8.20;;;;;;;9.53;71.15;100736.94;1821474;78;25362;-60
2021/10/17 10:02:14;;;;;;;20.40;7.80;;;;;;;9.57;71.27;100739.33;1821318;78;28157;-60
2021/10/17 10:04:47;;;;;;;17.00;8.43;;;;;;;9.63;71.49;100741.41;1824261;78;25596;-60
2021/10/17 10:07:24;;;;;;;18.55;8.30;;;;;;;9.67;71.28;100740.54;1827402;78;25439;-60
2021/10/17 10:09:57;;;;;;;30.27;24.70;;;;;;;9.70;71.20;100737.26;1827386;78;25734;-60
2021/10/17 10:12:26;;;;;;;139.52;129.60;;;;;;;9.76;71.06;100735.84;1861229;77;25425;-59
2021/10/17 10:14:58;;;;;;;120.08;111.05;;;;;;;9.78;70.92;100734.98;1827496;78;27392;-61
2021/10/17 10:17:28;;;;;;;58.98;54.38;;;;;;;9.78;70.79;100729.59;1826742;78;25705;-60
2021/10/17 10:19:59;;;;;;;17.10;8.20;;;;;;;9.82;70.58;100734.65;1826821;78;25417;-60
2021/10/17 10:22:31;;;;;;;19.27;8.95;;;;;;;9.84;70.31;100735.16;1860497;77;25356;-59
2021/10/17 10:25:00;;;;;;;20.20;9.18;;;;;;;9.84;70.39;100727.88;1826840;78;25563;-60
2021/10/17 10:27:29;;;;;;;27.95;18.73;;;;;;;9.84;70.26;100725.70;1860810;77;27439;-59
2021/10/17 10:30:24;;;;;;;17.00;8.73;;;;;;;9.85;70.30;100730.02;1826839;78;25558;-61
2021/10/17 10:33:20;;;;;;;26.62;8.33;;;;;;;9.86;69.61;100728.93;1860349;77;25411;-60
2021/10/17 10:36:09;;;;;;;15.38;7.87;;;;;;;9.82;69.65;100729.25;1826906;78;25518;-60
2021/10/17 10:38:57;;;;;;;154.27;141.77;;;;;;;9.82;69.57;100726.55;1860679;77;25344;-59
2021/10/17 10:42:45;;;;;;;172.00;159.10;;;;;;;9.93;69.64;100732.06;1904666;74;33730;-60
2021/10/17 12:24:39;;;;;;;53.38;49.33;;;;;;;10.47;63.50;100689.28;1886294;76;34643;-60
2021/10/17 12:27:06;;;;;;;70.52;65.12;;;;;;;10.29;63.57;100678.77;1857494;77;25574;-58
2021/10/17 12:35:05;;;;;;;122.93;114.67;;;;;;;10.18;64.09;100675.45;1904679;74;26089;-60
2021/10/17 12:37:31;;;;;;;104.72;97.15;;;;;;;10.03;64.15;100668.39;1857186;76;25463;-60
2021/10/17 19:25:51;;;;;;;30.50;15.58;;;;;;;7.64;73.70;100624.55;1886323;76;34688;-60
2021/10/17 22:46:57;;;;;;;129.07;118.70;;;;;;;5.82;80.77;100644.00;1867447;76;31866;-57
2021/10/17 22:49:24;;;;;;;37.53;20.97;;;;;;;5.72;80.78;100642.94;1823863;78;25441;-58
2021/10/17 22:52:08;;;;;;;44.40;22.95;;;;;;;5.79;80.69;100641.33;1904677;74;35080;-56
2021/10/17 22:54:35;;;;;;;39.88;24.95;;;;;;;5.73;80.83;100638.36;1859264;77;25660;-58
2021/10/17 22:57:04;;;;;;;92.33;84.03;;;;;;;5.75;80.74;100639.69;1859152;77;27464;-57
2021/10/17 23:02:10;;;;;;;48.20;24.18;;;;;;;5.88;80.77;100638.91;1867423;76;35105;-59
2021/10/17 23:04:37;;;;;;;40.52;22.32;;;;;;;5.83;80.68;100641.59;1756341;81;25636;-59
2021/10/17 23:07:04;;;;;;;46.20;24.27;;;;;;;5.84;80.65;100637.81;1770392;81;27417;-59
2021/10/17 23:09:31;;;;;;;39.23;23.15;;;;;;;5.86;80.57;100633.02;1756117;81;25615;-59
2021/10/17 23:11:58;;;;;;;46.02;23.02;;;;;;;5.89;80.46;100643.19;1739732;82;25624;-59
2021/10/17 23:14:25;;;;;;;43.92;24.55;;;;;;;5.91;80.29;100633.80;1756193;81;25500;-59
2021/10/17 23:16:54;;;;;;;50.00;25.90;;;;;;;5.93;80.27;100641.05;1745586;82;25464;-58
2021/10/17 23:19:21;;;;;;;43.90;24.37;;;;;;;5.94;80.45;100637.30;1756373;81;28352;-59
2021/10/17 23:21:49;;;;;;;50.05;26.45;;;;;;;5.95;80.40;100632.73;1739607;82;25677;-59